Time;durP1;ratioP1;P1;durP2;ratioP2;P2;SDS_P1;SDS_P2;PMS_P1;PMS_P2;Temp;Humidity;BMP_temperature;BMP_pressure;BME280_temperature;BME280_humidity;BME280_pressure;Samples;Min_cycle;Max_cycle;Signal;HPM_P1;HPM_P2
2021/03/27 00:02:08;;;;;;;10.80;7.37;;;13.10;66.90;;;;;;5069337;28;20424;-73
2021/03/27 00:04:59;;;;;;;11.40;7.20;;;13.10;67.00;;;;;;5062616;28;21112;-70
2021/03/27 00:07:37;;;;;;;10.60;7.00;;;13.10;67.60;;;;;;5067432;28;20456;-71
2021/03/27 00:10:09;;;;;;;11.57;7.37;;;13.00;68.20;;;;;;5069835;28;20457;-70
2021/03/27 00:12:55;;;;;;;16.47;7.23;;;12.90;69.20;;;;;;5070793;28;20429;-74
2021/03/27 00:16:05;;;;;;;13.73;7.30;;;12.80;69.90;;;;;;5068744;28;20453;-71
2021/03/27 00:18:47;;;;;;;12.40;6.23;;;12.70;70.70;;;;;;5039993;28;20752;-72
2021/03/27 00:21:30;;;;;;;11.63;7.40;;;12.70;71.00;;;;;;5067496;28;20410;-72
2021/03/27 00:24:22;;;;;;;10.87;7.00;;;12.60;71.10;;;;;;5071067;28;20406;-74
2021/03/27 00:27:07;;;;;;;8.30;5.33;;;12.60;70.80;;;;;;5037485;28;20426;-70
2021/03/27 00:29:52;;;;;;;9.67;6.00;;;12.60;70.50;;;;;;5070075;28;20429;-72
2021/03/27 00:32:26;;;;;;;10.97;6.20;;;12.60;70.20;;;;;;5070263;28;20826;-71
2021/03/27 00:35:00;;;;;;;9.83;6.10;;;12.70;70.40;;;;;;5069190;28;20992;-72
2021/03/27 00:37:28;;;;;;;9.70;5.53;;;12.70;70.80;;;;;;5070035;28;20472;-71
2021/03/27 00:39:59;;;;;;;8.67;5.67;;;12.60;71.70;;;;;;5070324;28;20472;-71
2021/03/27 00:42:28;;;;;;;10.47;5.80;;;12.50;72.40;;;;;;5070510;28;20426;-70
2021/03/27 00:45:03;;;;;;;10.07;5.73;;;12.50;73.20;;;;;;5069786;28;20537;-70
2021/03/27 00:47:33;;;;;;;10.87;6.40;;;12.40;73.70;;;;;;5057158;28;20448;-71
2021/03/27 00:50:14;;;;;;;11.70;6.80;;;12.30;74.30;;;;;;5070440;28;20429;-70
2021/03/27 00:52:46;;;;;;;11.10;6.47;;;12.30;74.60;;;;;;5070896;28;20503;-70
2021/03/27 00:55:18;;;;;;;9.43;5.50;;;12.30;74.90;;;;;;5069791;28;20442;-69
2021/03/27 00:58:00;;;;;;;9.80;6.00;;;12.20;75.10;;;;;;5074116;28;20881;-70
2021/03/27 01:00:29;;;;;;;9.17;5.20;;;12.20;74.90;;;;;;5059323;28;20999;-72
2021/03/27 01:03:03;;;;;;;7.80;5.00;;;12.20;74.80;;;;;;5069528;28;20996;-72
2021/03/27 01:05:31;;;;;;;9.27;5.60;;;12.20;74.80;;;;;;5069181;28;20468;-71
2021/03/27 01:07:59;;;;;;;9.70;6.10;;;12.20;74.20;;;;;;5069273;28;20878;-72
2021/03/27 01:10:31;;;;;;;10.93;5.37;;;12.20;74.30;;;;;;5069912;28;20420;-71
2021/03/27 01:13:01;;;;;;;9.10;5.50;;;12.20;75.10;;;;;;5068218;28;20418;-70
2021/03/27 01:15:38;;;;;;;9.30;5.33;;;12.10;76.50;;;;;;5068564;28;20441;-72
2021/03/27 01:18:08;;;;;;;9.70;5.60;;;11.90;77.70;;;;;;5067852;28;20429;-72
2021/03/27 01:20:41;;;;;;;12.07;6.10;;;11.80;78.60;;;;;;5069838;28;20422;-72
2021/03/27 01:23:09;;;;;;;7.90;5.50;;;11.70;79.60;;;;;;5069119;28;20418;-72
2021/03/27 01:25:37;;;;;;;7.93;4.87;;;11.60;80.30;;;;;;5068057;28;20562;-72
2021/03/27 01:28:49;;;;;;;9.43;5.37;;;11.60;80.80;;;;;;5064897;28;20792;-72
2021/03/27 01:31:19;;;;;;;10.73;5.70;;;11.50;81.40;;;;;;5047117;28;20427;-72
2021/03/27 01:34:02;;;;;;;8.80;4.90;;;11.50;81.70;;;;;;5033393;28;20953;-72
2021/03/27 01:37:11;;;;;;;11.40;6.20;;;11.40;82.50;;;;;;5026303;28;20575;-71
2021/03/27 01:39:58;;;;;;;10.40;5.47;;;11.50;82.70;;;;;;4997199;28;20634;-70
2021/03/27 01:42:32;;;;;;;8.30;4.80;;;11.40;83.10;;;;;;4994874;28;20437;-72
2021/03/27 01:45:19;;;;;;;9.33;4.87;;;11.40;83.40;;;;;;4987523;28;20457;-71
2021/03/27 01:48:01;;;;;;;8.70;5.70;;;11.30;84.00;;;;;;5000533;28;20594;-74
2021/03/27 01:50:37;;;;;;;9.47;5.70;;;11.20;85.70;;;;;;5000705;28;20961;-71
2021/03/27 01:53:46;;;;;;;10.33;6.63;;;11.10;87.10;;;;;;5009511;28;21110;-72
2021/03/27 01:56:21;;;;;;;11.57;6.10;;;11.00;88.90;;;;;;4921638;29;21131;-72
2021/03/27 01:58:46;;;;;;;9.33;5.90;;;10.80;90.20;;;;;;4993429;28;20424;-72
2021/03/27 02:01:36;;;;;;;9.63;5.60;;;10.70;90.30;;;;;;4999032;28;20944;-71
2021/03/27 02:04:19;;;;;;;14.60;6.70;;;10.60;91.00;;;;;;4996525;28;20777;-73
2021/03/27 02:06:55;;;;;;;11.60;6.20;;;10.50;91.30;;;;;;5022928;28;21007;-72
2021/03/27 02:09:59;;;;;;;13.10;6.20;;;10.40;91.80;;;;;;5046208;28;20461;-72
2021/03/27 02:13:15;;;;;;;10.97;5.57;;;10.40;92.30;;;;;;5046918;28;20991;-71
2021/03/27 02:16:14;;;;;;;13.60;6.53;;;10.30;92.60;;;;;;5024759;28;20449;-72
2021/03/27 02:18:52;;;;;;;10.73;6.60;;;10.30;92.80;;;;;;5059227;28;20999;-71
2021/03/27 02:21:54;;;;;;;10.87;6.30;;;10.30;92.90;;;;;;5066807;28;20453;-72
2021/03/27 02:24:50;;;;;;;9.77;6.40;;;10.30;93.20;;;;;;5068529;28;20467;-72
2021/03/27 02:27:27;;;;;;;10.60;6.33;;;10.20;93.70;;;;;;5067122;28;20430;-72
2021/03/27 02:29:55;;;;;;;11.93;6.57;;;10.20;94.20;;;;;;5069137;28;20418;-72
2021/03/27 02:32:25;;;;;;;15.30;7.23;;;10.20;94.60;;;;;;5068931;28;20414;-72
2021/03/27 02:34:53;;;;;;;14.23;6.83;;;10.10;94.80;;;;;;5071498;28;20484;-73
2021/03/27 02:37:35;;;;;;;11.17;6.70;;;10.10;95.00;;;;;;5072077;28;20503;-72
2021/03/27 02:40:33;;;;;;;12.00;6.87;;;10.00;95.10;;;;;;5072498;28;20446;-72
2021/03/27 02:43:02;;;;;;;13.23;7.17;;;10.00;95.40;;;;;;5070970;28;20535;-72
2021/03/27 02:45:46;;;;;;;14.60;7.23;;;10.00;95.60;;;;;;5071878;28;20437;-71
2021/03/27 02:48:20;;;;;;;14.50;7.00;;;10.00;95.70;;;;;;5067596;28;20430;-72
2021/03/27 02:51:05;;;;;;;15.20;7.33;;;9.90;95.90;;;;;;5060102;28;21115;-72
2021/03/27 02:54:29;;;;;;;11.30;6.00;;;9.90;96.00;;;;;;5072471;28;20434;-70
2021/03/27 02:57:07;;;;;;;10.37;5.80;;;9.90;96.20;;;;;;5008322;28;20473;-71
2021/03/27 02:59:48;;;;;;;11.67;6.37;;;9.90;96.10;;;;;;5067436;28;20494;-72
2021/03/27 03:02:38;;;;;;;9.10;5.30;;;9.90;96.10;;;;;;5068585;28;20428;-71
2021/03/27 03:05:07;;;;;;;12.17;6.00;;;9.90;95.70;;;;;;5082364;28;20505;-70
2021/03/27 03:07:47;;;;;;;9.20;5.30;;;9.90;95.60;;;;;;5076042;28;20421;-72
2021/03/27 03:10:26;;;;;;;9.50;5.27;;;9.90;95.20;;;;;;5073584;28;20936;-72
2021/03/27 03:13:13;;;;;;;12.47;6.70;;;10.00;95.10;;;;;;5071880;28;20555;-71
2021/03/27 03:15:49;;;;;;;8.43;5.27;;;10.00;94.70;;;;;;5074501;28;20442;-71
2021/03/27 03:18:15;;;;;;;16.57;5.27;;;10.00;94.70;;;;;;5067755;28;20863;-72
2021/03/27 03:20:49;;;;;;;11.80;5.00;;;10.00;94.40;;;;;;5065547;28;20550;-72
2021/03/27 03:23:27;;;;;;;7.23;4.40;;;10.00;94.10;;;;;;5081639;28;20191;-72
2021/03/27 03:26:21;;;;;;;9.20;4.40;;;10.10;94.20;;;;;;5077548;28;20451;-71
2021/03/27 03:29:06;;;;;;;7.77;4.50;;;10.00;94.10;;;;;;5060431;28;20438;-72
2021/03/27 03:31:57;;;;;;;6.37;4.83;;;10.00;94.00;;;;;;5087357;28;20488;-72
2021/03/27 03:34:27;;;;;;;11.00;5.07;;;10.00;94.00;;;;;;5087223;28;20442;-72
2021/03/27 03:37:07;;;;;;;8.97;4.73;;;10.10;94.10;;;;;;5075166;28;20453;-71
2021/03/27 03:40:05;;;;;;;7.40;5.00;;;10.10;94.20;;;;;;5073554;28;20870;-72
2021/03/27 03:42:53;;;;;;;8.40;4.73;;;10.00;94.30;;;;;;5029932;28;20439;-72
2021/03/27 03:45:39;;;;;;;10.17;5.00;;;10.10;94.80;;;;;;5027697;28;20493;-72
2021/03/27 03:48:33;;;;;;;8.97;5.13;;;10.10;94.70;;;;;;5012732;28;20505;-72
2021/03/27 03:51:27;;;;;;;7.60;3.90;;;10.20;95.10;;;;;;5030830;28;20423;-71
2021/03/27 03:54:08;;;;;;;5.53;2.50;;;10.00;95.10;;;;;;5023352;28;20451;-71
2021/03/27 03:56:52;;;;;;;4.60;1.50;;;9.80;92.80;;;;;;5027436;28;20475;-71
2021/03/27 03:59:18;;;;;;;3.20;1.80;;;9.20;86.80;;;;;;5011912;28;20459;-72
2021/03/27 04:01:55;;;;;;;2.73;1.30;;;8.90;88.70;;;;;;5011708;28;20516;-71
2021/03/27 04:04:28;;;;;;;2.50;1.50;;;8.80;89.70;;;;;;5021073;28;20197;-71
2021/03/27 04:07:05;;;;;;;1.60;1.00;;;8.70;89.00;;;;;;5011784;28;20436;-73
2021/03/27 04:09:45;;;;;;;2.70;1.87;;;8.70;88.60;;;;;;5011447;28;20444;-71
2021/03/27 04:12:35;;;;;;;4.57;1.40;;;8.70;89.20;;;;;;5027207;28;20506;-71
2021/03/27 04:15:32;;;;;;;3.60;1.53;;;8.60;90.00;;;;;;5014778;28;20534;-72
2021/03/27 04:18:01;;;;;;;1.93;1.17;;;8.50;89.90;;;;;;4956166;28;20565;-70
2021/03/27 04:20:45;;;;;;;1.33;1.00;;;8.50;89.60;;;;;;5015606;28;20425;-72
2021/03/27 04:23:24;;;;;;;1.97;1.13;;;8.50;89.50;;;;;;5015644;28;20455;-71
2021/03/27 04:26:07;;;;;;;1.77;1.13;;;8.40;88.70;;;;;;5027888;28;20891;-71
2021/03/27 04:28:47;;;;;;;1.83;1.10;;;8.30;88.00;;;;;;5008222;28;20536;-72
2021/03/27 04:31:28;;;;;;;1.23;0.93;;;8.30;86.80;;;;;;5021378;28;20436;-72
2021/03/27 04:34:10;;;;;;;1.50;0.90;;;8.20;86.60;;;;;;5007777;28;20432;-72
2021/03/27 04:36:54;;;;;;;1.93;1.00;;;8.30;85.90;;;;;;4990914;28;20468;-71
2021/03/27 04:39:30;;;;;;;1.00;0.90;;;8.30;86.20;;;;;;5015011;28;20420;-72
2021/03/27 04:42:12;;;;;;;1.37;0.90;;;8.30;85.90;;;;;;5025602;28;20482;-72
2021/03/27 04:45:07;;;;;;;1.40;0.90;;;8.30;86.30;;;;;;4991090;28;20452;-71
2021/03/27 04:47:42;;;;;;;1.83;1.00;;;8.30;86.30;;;;;;5016492;28;20502;-72
2021/03/27 04:50:33;;;;;;;1.20;0.80;;;8.30;86.60;;;;;;5024946;28;20443;-72
2021/03/27 04:53:35;;;;;;;4.23;1.20;;;8.20;86.80;;;;;;5008049;28;20650;-72
2021/03/27 04:56:06;;;;;;;3.87;1.30;;;8.20;87.40;;;;;;5016740;28;20467;-72
2021/03/27 04:58:50;;;;;;;2.90;1.20;;;8.20;87.70;;;;;;5027879;28;20525;-72
2021/03/27 05:01:18;;;;;;;1.80;0.97;;;8.10;86.90;;;;;;5009723;28;21018;-72
2021/03/27 05:04:08;;;;;;;0.90;0.77;;;8.00;86.00;;;;;;5011407;28;20439;-72
2021/03/27 05:06:42;;;;;;;1.30;0.80;;;8.00;85.50;;;;;;5027575;28;20428;-72
2021/03/27 05:09:17;;;;;;;1.30;0.90;;;7.90;84.60;;;;;;5028124;28;20427;-73
2021/03/27 05:11:55;;;;;;;2.47;1.00;;;7.90;84.40;;;;;;5007745;28;20536;-72
2021/03/27 05:14:44;;;;;;;1.40;1.10;;;7.80;83.60;;;;;;5024171;28;20448;-72
2021/03/27 05:17:37;;;;;;;1.60;0.97;;;7.70;84.30;;;;;;4999676;28;20510;-73
2021/03/27 05:20:15;;;;;;;4.23;1.10;;;7.70;84.70;;;;;;5031158;28;20493;-72
2021/03/27 05:23:02;;;;;;;1.43;1.00;;;7.70;84.70;;;;;;5013933;28;20427;-71
2021/03/27 05:25:34;;;;;;;4.40;1.17;;;7.60;85.50;;;;;;5027881;28;20447;-71
2021/03/27 05:28:20;;;;;;;1.40;1.10;;;7.70;85.60;;;;;;5011895;28;20785;-71
2021/03/27 05:30:46;;;;;;;1.10;0.83;;;7.70;85.50;;;;;;5017329;28;21106;-72
2021/03/27 05:33:51;;;;;;;0.80;0.70;;;7.80;85.20;;;;;;5066658;28;20451;-72
2021/03/27 05:36:27;;;;;;;1.43;0.90;;;7.80;85.20;;;;;;5057342;28;20257;-72
2021/03/27 05:39:16;;;;;;;1.10;1.10;;;7.80;85.30;;;;;;5072550;28;20432;-72
2021/03/27 05:41:59;;;;;;;1.43;1.00;;;7.70;85.00;;;;;;5078310;28;20426;-72
2021/03/27 05:44:49;;;;;;;2.43;1.00;;;7.80;85.50;;;;;;5071936;28;20440;-71
2021/03/27 05:47:45;;;;;;;1.20;0.97;;;7.80;85.20;;;;;;5068249;28;20521;-72
2021/03/27 05:50:42;;;;;;;1.50;0.97;;;7.70;83.80;;;;;;5067649;28;20441;-72
2021/03/27 05:53:40;;;;;;;0.90;0.70;;;7.70;83.60;;;;;;5070944;28;20442;-73
2021/03/27 05:56:43;;;;;;;1.20;0.90;;;7.70;84.00;;;;;;5071354;28;20465;-71
2021/03/27 05:59:46;;;;;;;0.97;0.80;;;7.70;84.70;;;;;;5064038;28;20442;-72
2021/03/27 06:02:33;;;;;;;1.40;0.80;;;7.70;84.30;;;;;;5059957;28;20413;-71
2021/03/27 06:05:14;;;;;;;0.90;0.80;;;7.60;82.50;;;;;;5071662;28;21199;-71
2021/03/27 06:07:56;;;;;;;1.20;0.80;;;7.50;82.80;;;;;;5070715;28;20425;-72
2021/03/27 06:10:30;;;;;;;1.60;0.97;;;7.60;82.80;;;;;;5075773;28;20455;-71
2021/03/27 06:13:08;;;;;;;1.23;0.80;;;7.60;82.10;;;;;;5073661;28;20840;-72
2021/03/27 06:16:12;;;;;;;1.23;0.63;;;7.70;79.90;;;;;;5074229;28;20437;-71
2021/03/27 06:19:10;;;;;;;1.83;0.90;;;7.70;77.80;;;;;;5066642;28;20441;-72
2021/03/27 06:21:44;;;;;;;2.13;0.90;;;7.70;78.00;;;;;;5063562;28;20425;-72
2021/03/27 06:24:28;;;;;;;1.30;0.90;;;7.70;77.80;;;;;;5075246;28;20440;-71
2021/03/27 06:27:10;;;;;;;4.80;0.80;;;7.70;77.60;;;;;;5073211;28;20532;-71
2021/03/27 06:29:50;;;;;;;2.10;1.13;;;7.50;78.60;;;;;;5073622;28;20524;-71
2021/03/27 06:32:25;;;;;;;3.03;1.30;;;7.30;79.60;;;;;;5073614;28;20418;-71
2021/03/27 06:35:43;;;;;;;1.27;0.90;;;7.30;80.30;;;;;;5068159;28;20977;-72
2021/03/27 06:38:36;;;;;;;6.00;1.13;;;7.30;81.10;;;;;;5063682;28;20927;-72
2021/03/27 06:41:17;;;;;;;2.40;1.30;;;7.10;80.50;;;;;;5060629;28;20468;-72
2021/03/27 06:44:01;;;;;;;2.60;1.23;;;7.10;80.80;;;;;;5071566;28;20434;-72
2021/03/27 06:46:51;;;;;;;2.73;1.23;;;7.00;81.10;;;;;;5072163;28;21079;-71
2021/03/27 06:49:35;;;;;;;1.90;1.00;;;7.10;81.10;;;;;;5060376;28;20429;-71
2021/03/27 06:52:35;;;;;;;2.53;1.00;;;7.20;81.20;;;;;;5075021;28;20473;-72
2021/03/27 06:55:38;;;;;;;3.97;1.10;;;7.30;80.80;;;;;;5076905;28;20441;-70
2021/03/27 06:58:22;;;;;;;2.50;1.40;;;7.30;80.50;;;;;;5072706;28;20472;-72
2021/03/27 07:01:08;;;;;;;1.87;1.20;;;7.20;79.20;;;;;;5072958;28;20464;-72
2021/03/27 07:04:08;;;;;;;9.97;1.80;;;7.20;77.30;;;;;;5072674;28;20422;-72
2021/03/27 07:07:00;;;;;;;2.63;1.13;;;7.30;76.20;;;;;;5072296;28;20513;-71
2021/03/27 07:09:40;;;;;;;1.50;1.00;;;7.30;73.90;;;;;;5072868;28;20452;-71
2021/03/27 07:12:44;;;;;;;1.40;1.00;;;7.30;70.80;;;;;;5073405;28;20457;-72
2021/03/27 07:15:30;;;;;;;4.40;1.10;;;7.30;70.80;;;;;;5060207;28;20441;-72
2021/03/27 07:18:24;;;;;;;1.43;1.03;;;7.40;70.50;;;;;;5069550;28;20458;-72
2021/03/27 07:21:08;;;;;;;1.57;1.00;;;7.60;70.50;;;;;;5073526;28;20963;-73
2021/03/27 07:24:10;;;;;;;4.07;0.97;;;7.80;69.50;;;;;;5078090;28;20410;-72
2021/03/27 07:27:30;;;;;;;3.70;1.20;;;7.90;68.00;;;;;;5068260;28;20498;-72
2021/03/27 07:30:20;;;;;;;1.63;0.97;;;8.00;68.00;;;;;;5014895;28;20433;-71
2021/03/27 07:32:59;;;;;;;8.10;1.27;;;7.70;65.80;;;;;;5016676;28;20420;-72
2021/03/27 07:35:37;;;;;;;2.67;1.00;;;7.50;67.00;;;;;;5000298;28;20609;-72
2021/03/27 07:38:30;;;;;;;2.07;1.00;;;7.60;67.60;;;;;;5000266;28;20543;-73
2021/03/27 07:41:33;;;;;;;5.20;1.00;;;7.70;67.50;;;;;;5013066;28;20429;-73
2021/03/27 07:44:17;;;;;;;2.90;1.27;;;7.60;65.40;;;;;;5011674;28;20428;-74
2021/03/27 07:47:20;;;;;;;1.30;1.00;;;7.40;65.30;;;;;;5009937;28;20467;-75
2021/03/27 07:50:26;;;;;;;2.20;1.10;;;7.60;65.60;;;;;;5010486;28;20449;-71
2021/03/27 07:53:25;;;;;;;4.23;1.03;;;7.70;63.90;;;;;;5010575;28;20939;-74
2021/03/27 07:56:28;;;;;;;3.20;1.30;;;7.80;63.80;;;;;;5005343;28;20476;-72
2021/03/27 07:59:20;;;;;;;2.80;1.07;;;7.80;63.40;;;;;;5009310;28;20420;-73
2021/03/27 08:02:04;;;;;;;1.10;0.90;;;7.90;63.10;;;;;;5010249;28;20424;-74
2021/03/27 08:04:49;;;;;;;2.03;1.10;;;8.10;63.70;;;;;;5049956;28;20430;-73
2021/03/27 08:07:21;;;;;;;2.73;0.90;;;8.20;62.90;;;;;;5062503;28;20444;-74
2021/03/27 08:10:09;;;;;;;2.30;1.17;;;8.10;62.30;;;;;;5068102;28;20427;-73
2021/03/27 08:13:08;;;;;;;4.70;1.13;;;8.20;62.20;;;;;;5073465;28;20501;-73
2021/03/27 08:15:58;;;;;;;4.50;1.10;;;8.30;62.30;;;;;;5072251;28;20438;-72
2021/03/27 08:19:03;;;;;;;1.03;0.80;;;8.40;62.20;;;;;;5072999;28;20427;-74
2021/03/27 08:21:34;;;;;;;1.07;0.90;;;8.20;63.50;;;;;;5073601;28;20421;-73
2021/03/27 08:24:15;;;;;;;4.63;1.20;;;8.30;63.50;;;;;;5072761;28;20850;-76
2021/03/27 08:26:47;;;;;;;3.73;1.07;;;8.20;62.80;;;;;;5077164;28;20426;-75
2021/03/27 08:29:43;;;;;;;4.00;1.23;;;8.30;63.70;;;;;;5081081;28;20425;-73
2021/03/27 08:32:41;;;;;;;1.63;1.00;;;8.40;62.20;;;;;;5071829;28;20449;-72
2021/03/27 08:35:21;;;;;;;1.40;0.90;;;8.20;61.90;;;;;;5070187;28;20454;-73
2021/03/27 08:38:16;;;;;;;1.53;0.90;;;8.30;61.00;;;;;;5070118;28;20465;-71
2021/03/27 08:41:01;;;;;;;1.80;1.00;;;8.20;55.70;;;;;;5067337;28;21111;-71
2021/03/27 08:43:33;;;;;;;2.10;0.90;;;8.20;56.40;;;;;;5062183;28;20794;-73
2021/03/27 08:46:46;;;;;;;7.37;1.10;;;8.40;55.30;;;;;;5063731;28;20499;-72
2021/03/27 08:49:30;;;;;;;1.50;0.80;;;8.40;54.10;;;;;;4991904;28;20500;-73
2021/03/27 08:52:11;;;;;;;4.20;1.07;;;8.50;53.30;;;;;;4995390;28;20452;-73
2021/03/27 08:54:54;;;;;;;2.17;1.10;;;8.50;52.60;;;;;;4982823;28;21034;-72
2021/03/27 08:57:38;;;;;;;1.03;0.70;;;8.60;52.80;;;;;;5006907;28;20464;-73
2021/03/27 09:00:24;;;;;;;1.53;0.90;;;8.60;51.40;;;;;;4993936;28;20458;-72
2021/03/27 09:03:34;;;;;;;2.30;1.10;;;8.60;49.90;;;;;;5002191;28;20437;-72
2021/03/27 09:06:30;;;;;;;2.50;1.03;;;8.70;50.70;;;;;;4992630;28;20460;-71
2021/03/27 09:09:46;;;;;;;2.03;0.93;;;8.70;50.90;;;;;;4999319;28;21070;-72
2021/03/27 09:12:31;;;;;;;2.90;0.83;;;8.70;51.20;;;;;;4958691;28;20438;-71
2021/03/27 09:15:57;;;;;;;4.60;0.90;;;8.90;51.40;;;;;;4994936;28;20590;-72
2021/03/27 09:18:49;;;;;;;1.77;0.97;;;8.90;49.70;;;;;;4998458;28;20473;-71
2021/03/27 09:21:35;;;;;;;3.63;1.43;;;9.00;49.50;;;;;;4988153;28;20819;-72
2021/03/27 09:24:19;;;;;;;2.20;1.03;;;8.90;49.70;;;;;;4994995;28;20436;-72
2021/03/27 09:27:16;;;;;;;2.73;1.47;;;9.00;49.80;;;;;;5002776;28;20429;-72
2021/03/27 09:29:51;;;;;;;2.53;1.43;;;9.00;50.60;;;;;;5014722;28;20433;-71
2021/03/27 09:32:41;;;;;;;3.07;1.00;;;9.30;50.50;;;;;;5011036;28;20436;-71
2021/03/27 09:35:44;;;;;;;2.20;0.93;;;9.40;49.70;;;;;;5005948;28;20445;-72
2021/03/27 09:38:24;;;;;;;5.53;1.10;;;9.30;49.80;;;;;;4995580;28;20472;-73
2021/03/27 09:41:07;;;;;;;1.50;0.70;;;9.30;50.30;;;;;;5020461;28;20438;-72
2021/03/27 09:43:54;;;;;;;2.33;1.10;;;9.50;49.90;;;;;;5026208;28;20587;-70
2021/03/27 09:46:43;;;;;;;1.40;1.20;;;9.70;50.50;;;;;;5009048;28;20513;-72
2021/03/27 09:49:30;;;;;;;6.63;1.10;;;9.90;49.30;;;;;;5043540;28;20430;-72
2021/03/27 09:52:26;;;;;;;2.47;1.37;;;10.00;48.70;;;;;;5065049;28;20549;-71
2021/03/27 09:55:12;;;;;;;2.43;1.03;;;9.70;46.20;;;;;;5063798;28;20443;-71
2021/03/27 09:57:55;;;;;;;1.63;0.90;;;9.60;48.10;;;;;;5082670;28;21041;-71
2021/03/27 10:00:47;;;;;;;3.33;1.60;;;9.70;48.10;;;;;;5065481;28;20457;-71
2021/03/27 10:03:37;;;;;;;5.37;1.07;;;9.90;46.70;;;;;;5067078;28;20422;-71
2021/03/27 10:06:42;;;;;;;5.00;1.27;;;10.00;46.20;;;;;;5061894;28;20446;-71
2021/03/27 10:09:16;;;;;;;1.90;0.93;;;9.90;43.80;;;;;;5058657;28;20939;-71
2021/03/27 10:11:44;;;;;;;3.63;1.00;;;9.80;44.20;;;;;;5066052;28;20528;-72
2021/03/27 10:14:20;;;;;;;2.87;1.10;;;9.90;43.90;;;;;;5066815;28;20446;-72
2021/03/27 10:16:56;;;;;;;2.50;1.30;;;9.80;44.30;;;;;;5056490;28;20457;-72
2021/03/27 10:19:49;;;;;;;1.30;0.73;;;9.90;43.90;;;;;;5065636;28;20495;-70
2021/03/27 10:22:52;;;;;;;2.47;0.80;;;9.80;43.50;;;;;;5068017;28;20418;-72
2021/03/27 10:25:33;;;;;;;2.83;0.87;;;9.60;43.00;;;;;;5048048;28;20457;-71
2021/03/27 10:28:18;;;;;;;2.03;0.90;;;9.60;43.80;;;;;;5067494;28;20433;-71
2021/03/27 10:30:56;;;;;;;2.33;1.27;;;9.70;43.10;;;;;;5066692;28;20494;-73
2021/03/27 10:33:35;;;;;;;4.30;0.83;;;9.80;43.00;;;;;;5066569;28;20559;-70
2021/03/27 10:36:22;;;;;;;2.17;1.10;;;10.00;42.60;;;;;;5066136;28;20465;-70
2021/03/27 10:39:07;;;;;;;2.63;1.17;;;10.00;42.70;;;;;;5067175;28;20501;-72
2021/03/27 10:42:03;;;;;;;4.13;2.27;;;10.00;43.10;;;;;;5067439;28;20591;-73
2021/03/27 10:44:35;;;;;;;2.60;0.90;;;10.40;42.70;;;;;;5056601;28;20492;-73
2021/03/27 10:47:15;;;;;;;1.90;0.90;;;10.40;42.70;;;;;;5066484;28;20520;-72
2021/03/27 10:50:11;;;;;;;1.70;1.00;;;10.40;43.00;;;;;;5065074;28;20525;-70
2021/03/27 10:52:46;;;;;;;1.73;0.90;;;10.40;42.00;;;;;;5065367;28;20532;-71
2021/03/27 10:55:29;;;;;;;1.60;0.90;;;10.70;41.20;;;;;;5072759;28;20449;-72
2021/03/27 10:58:31;;;;;;;3.00;1.10;;;10.90;40.70;;;;;;5073931;28;20465;-72
2021/03/27 11:01:42;;;;;;;3.60;0.90;;;11.10;40.00;;;;;;5074942;28;20443;-72
2021/03/27 11:04:26;;;;;;;4.67;1.57;;;11.50;40.00;;;;;;5076898;28;20478;-71
2021/03/27 11:06:54;;;;;;;3.70;1.07;;;12.00;39.10;;;;;;5061780;28;20451;-72
2021/03/27 11:09:35;;;;;;;3.90;1.37;;;11.70;38.70;;;;;;5073311;28;20428;-73
2021/03/27 11:12:31;;;;;;;2.30;1.10;;;11.00;39.50;;;;;;5072284;28;20438;-71
2021/03/27 11:15:24;;;;;;;1.40;0.90;;;10.60;41.00;;;;;;5072061;28;20470;-76
2021/03/27 11:18:08;;;;;;;1.27;0.87;;;10.70;41.80;;;;;;5069266;28;20500;-72
2021/03/27 11:21:07;;;;;;;2.60;0.83;;;11.10;40.00;;;;;;5050487;28;20925;-73
2021/03/27 11:23:42;;;;;;;1.30;0.90;;;11.10;40.80;;;;;;5061277;28;20937;-73
2021/03/27 11:26:23;;;;;;;1.33;1.07;;;11.00;41.40;;;;;;5070976;28;20487;-72
2021/03/27 11:28:59;;;;;;;1.37;0.90;;;10.70;42.00;;;;;;5071796;28;20426;-72
2021/03/27 11:31:50;;;;;;;4.83;1.20;;;10.60;42.40;;;;;;5060324;28;20942;-73
2021/03/27 11:34:54;;;;;;;3.93;1.20;;;11.00;42.00;;;;;;5070402;28;20461;-72
2021/03/27 11:37:45;;;;;;;1.93;1.20;;;11.00;42.00;;;;;;5070222;28;20461;-73
2021/03/27 11:40:28;;;;;;;5.73;1.40;;;10.90;41.80;;;;;;5074384;28;20426;-71
2021/03/27 11:43:25;;;;;;;4.07;1.60;;;10.50;42.60;;;;;;5076336;28;20410;-71
2021/03/27 11:46:02;;;;;;;1.63;1.10;;;10.50;43.50;;;;;;5077161;28;20442;-70
2021/03/27 11:48:47;;;;;;;2.10;1.10;;;10.50;43.20;;;;;;5074602;28;20520;-73
2021/03/27 11:51:15;;;;;;;2.33;1.20;;;10.60;43.10;;;;;;5070426;28;20426;-72
2021/03/27 11:53:54;;;;;;;1.30;1.00;;;10.60;43.20;;;;;;5071164;28;21052;-71
2021/03/27 11:56:37;;;;;;;2.17;0.90;;;10.40;43.10;;;;;;5069976;28;20466;-72
2021/03/27 12:00:47;;;;;;;1.70;1.00;;;10.50;43.90;;;;;;5069866;28;20464;-72
2021/03/27 12:02:40;;;;;;;3.40;1.00;;;10.60;42.40;;;;;;5059537;28;20437;-73
2021/03/27 12:05:34;;;;;;;2.37;1.10;;;10.50;43.00;;;;;;5070143;28;20438;-72
2021/03/27 12:08:37;;;;;;;1.87;1.00;;;10.30;43.20;;;;;;5071209;28;20661;-72
2021/03/27 12:11:14;;;;;;;1.87;1.13;;;10.40;43.50;;;;;;5073592;28;20418;-72
2021/03/27 12:13:51;;;;;;;3.63;1.57;;;10.30;43.50;;;;;;5072537;28;20436;-72
2021/03/27 12:16:20;;;;;;;3.83;1.50;;;10.30;43.90;;;;;;5071146;28;20875;-73
2021/03/27 12:18:45;;;;;;;3.43;1.63;;;10.40;43.80;;;;;;5059252;28;20437;-72
2021/03/27 12:21:21;;;;;;;1.77;1.00;;;10.50;43.70;;;;;;5066654;28;20422;-72
2021/03/27 12:24:13;;;;;;;2.50;1.10;;;10.40;44.20;;;;;;5067833;28;20487;-72
2021/03/27 12:27:12;;;;;;;4.07;1.40;;;10.20;44.20;;;;;;5058707;28;20441;-72
2021/03/27 12:30:00;;;;;;;1.47;1.20;;;10.20;44.20;;;;;;5070786;28;20922;-72
2021/03/27 12:32:55;;;;;;;2.30;1.30;;;10.20;44.10;;;;;;5069199;28;21006;-72
2021/03/27 12:35:33;;;;;;;4.20;1.40;;;10.20;43.70;;;;;;5070202;28;20792;-71
2021/03/27 12:38:07;;;;;;;2.50;1.47;;;10.30;43.50;;;;;;5071331;28;20509;-72
2021/03/27 12:40:42;;;;;;;2.90;1.20;;;10.40;43.20;;;;;;5070851;28;20800;-72
2021/03/27 12:43:13;;;;;;;3.77;1.67;;;10.40;43.70;;;;;;5071659;28;20916;-73
2021/03/27 12:45:44;;;;;;;4.47;1.10;;;10.90;42.20;;;;;;5070791;28;20533;-73
2021/03/27 12:48:41;;;;;;;4.13;1.40;;;11.20;41.50;;;;;;5054862;28;20434;-72
2021/03/27 12:51:37;;;;;;;2.90;1.30;;;11.00;42.00;;;;;;5058914;28;20426;-72
2021/03/27 12:54:21;;;;;;;1.63;1.00;;;10.90;42.60;;;;;;5066161;28;20430;-73
2021/03/27 12:57:05;;;;;;;1.73;1.17;;;11.10;42.30;;;;;;5079983;28;20732;-71
2021/03/27 12:59:46;;;;;;;3.20;1.30;;;11.00;41.80;;;;;;5068662;28;20422;-72
2021/03/27 13:02:49;;;;;;;3.50;1.10;;;11.10;40.80;;;;;;5056882;28;20461;-73
2021/03/27 13:05:24;;;;;;;2.70;1.07;;;11.20;40.40;;;;;;5054323;28;20433;-73
2021/03/27 13:08:15;;;;;;;4.10;1.13;;;11.10;39.80;;;;;;5070665;28;20445;-70
2021/03/27 13:10:54;;;;;;;2.40;1.20;;;11.00;40.30;;;;;;5070745;28;20430;-73
2021/03/27 13:13:57;;;;;;;3.20;1.30;;;11.30;39.80;;;;;;5070686;28;20422;-72
2021/03/27 13:16:41;;;;;;;5.00;2.23;;;11.70;39.80;;;;;;5069131;28;20576;-73
2021/03/27 13:19:28;;;;;;;2.03;0.90;;;11.90;39.10;;;;;;5070164;28;20426;-71
2021/03/27 13:21:54;;;;;;;2.70;1.20;;;11.70;38.30;;;;;;5059449;28;20480;-72
2021/03/27 13:24:32;;;;;;;3.40;1.17;;;11.60;38.30;;;;;;5074708;28;20447;-71
2021/03/27 13:27:19;;;;;;;2.67;1.00;;;11.50;38.40;;;;;;5076565;28;20669;-69
2021/03/27 13:29:47;;;;;;;2.27;1.10;;;11.60;38.00;;;;;;5068607;28;20429;-70
2021/03/27 13:32:16;;;;;;;3.53;1.70;;;11.40;39.00;;;;;;5069068;28;20414;-70
2021/03/27 13:34:57;;;;;;;2.57;1.30;;;11.50;39.00;;;;;;5064064;28;20536;-72
2021/03/27 13:37:28;;;;;;;5.13;1.17;;;11.60;39.50;;;;;;5066749;28;20477;-72
2021/03/27 13:39:59;;;;;;;3.47;1.37;;;11.50;39.60;;;;;;5070306;28;20983;-72
2021/03/27 13:42:31;;;;;;;7.37;1.80;;;11.70;39.40;;;;;;5071564;28;20791;-73
2021/03/27 13:45:24;;;;;;;2.13;1.10;;;11.90;39.10;;;;;;5069446;28;20457;-71
2021/03/27 13:48:18;;;;;;;2.20;1.20;;;12.30;38.00;;;;;;5067646;28;20995;-72
2021/03/27 13:51:11;;;;;;;1.63;1.00;;;11.80;38.40;;;;;;5069874;28;20437;-72
2021/03/27 13:54:21;;;;;;;4.63;1.03;;;11.80;39.10;;;;;;5067644;28;20457;-72
2021/03/27 13:57:26;;;;;;;1.83;1.10;;;11.60;39.60;;;;;;5084249;28;20462;-73
2021/03/27 13:59:54;;;;;;;5.97;1.93;;;11.50;39.90;;;;;;5065864;28;20431;-71
2021/03/27 14:02:49;;;;;;;3.60;1.27;;;11.80;39.80;;;;;;5066671;28;20928;-74
2021/03/27 14:05:43;;;;;;;2.80;1.37;;;12.10;39.00;;;;;;5067248;28;20446;-71
2021/03/27 14:08:23;;;;;;;5.83;1.90;;;11.70;39.10;;;;;;5057603;28;20426;-72
2021/03/27 14:11:10;;;;;;;2.50;1.20;;;11.60;39.90;;;;;;5066005;28;20452;-72
2021/03/27 14:13:42;;;;;;;3.20;1.20;;;11.70;39.50;;;;;;5056973;28;20793;-72
2021/03/27 14:16:08;;;;;;;3.37;1.50;;;11.80;38.70;;;;;;5067631;28;20483;-70
2021/03/27 14:19:09;;;;;;;3.30;1.27;;;11.80;39.50;;;;;;5063064;28;20426;-70
2021/03/27 14:21:51;;;;;;;7.07;1.40;;;11.60;39.10;;;;;;5055853;28;20414;-72
2021/03/27 14:24:39;;;;;;;6.47;1.30;;;11.30;39.60;;;;;;5072578;28;20813;-71